Weather at Blythe Airport

Public forecast

Using degrees Fahrenheit for public forecast. Weather courtesy of forecast.io.

Current aviation weather report (METAR) for Blythe Airport

Retrieved 2021/01/17 03:52 UTC (33 minutes ago):

KBLH 170352Z AUTO 34006KT 10SM CLR 19/M06 A3002 RMK AO2 SLP162 T01891061

Aviation forecast (TAF) for Blythe Airport

Retrieved 2021-01-17 00:39 UTC (4 hours ago):

TAF KBLH 162337Z 1700/1724 35013G22KT P6SM FEW250 FM170200 33010KT P6SM SKC